createdAt,value
2022-11-23T00:01:26.251Z,27.73
2022-11-23T00:03:28.860Z,37.70
2022-11-23T00:05:32.418Z,22.70
2022-11-23T00:07:35.068Z,25.75
2022-11-23T00:09:39.076Z,17.40
2022-11-23T00:11:43.760Z,24.42
2022-11-23T00:13:46.934Z,27.25
2022-11-23T00:15:49.508Z,22.85
2022-11-23T00:17:52.103Z,12.05
2022-11-23T00:19:54.715Z,7.32
2022-11-23T00:21:57.311Z,16.42
2022-11-23T00:24:00.466Z,12.98
2022-11-23T00:26:05.048Z,12.32
2022-11-23T00:28:07.874Z,15.35
2022-11-23T00:30:11.830Z,24.23
2022-11-23T00:32:14.459Z,23.90
2022-11-23T00:34:17.256Z,25.25
2022-11-23T00:36:20.837Z,21.80
2022-11-23T00:38:23.414Z,23.95
2022-11-23T00:40:26.018Z,14.85
2022-11-23T00:42:35.124Z,9.80
2022-11-23T00:44:40.383Z,6.13
2022-11-23T00:46:42.997Z,7.85
2022-11-23T00:48:47.409Z,7.63
2022-11-23T00:50:50.201Z,15.85
2022-11-23T00:52:52.818Z,8.88
2022-11-23T00:54:55.388Z,6.05
2022-11-23T00:56:58.040Z,6.68
2022-11-23T00:59:03.188Z,5.10
2022-11-23T01:01:08.558Z,6.32
2022-11-23T01:03:11.326Z,5.22
2022-11-23T01:05:13.897Z,3.55
2022-11-23T01:07:16.568Z,3.65
2022-11-23T01:09:21.609Z,5.88
2022-11-23T01:11:25.857Z,20.42
2022-11-23T01:13:28.993Z,14.48
2022-11-23T01:15:33.958Z,6.50
2022-11-23T01:17:36.562Z,6.10
2022-11-23T01:19:39.200Z,5.25
2022-11-23T01:21:41.804Z,5.65
2022-11-23T01:23:44.395Z,5.45
2022-11-23T01:25:54.314Z,5.50
2022-11-23T01:27:59.365Z,5.82
2022-11-23T01:30:02.061Z,6.35
2022-11-23T01:32:06.139Z,9.75
2022-11-23T01:34:08.998Z,10.70
2022-11-23T01:36:12.727Z,10.75
2022-11-23T01:38:18.409Z,11.00
2022-11-23T01:40:21.392Z,6.75
2022-11-23T01:42:23.976Z,6.00
2022-11-23T01:44:30.063Z,5.57
2022-11-23T01:46:32.653Z,5.55
2022-11-23T01:48:40.322Z,5.05
2022-11-23T01:50:43.947Z,5.82
2022-11-23T01:52:46.569Z,4.10
2022-11-23T01:54:51.083Z,4.43
2022-11-23T01:56:56.685Z,4.07
2022-11-23T01:59:03.655Z,5.53
2022-11-23T02:01:06.908Z,3.92
2022-11-23T02:03:10.572Z,4.35
2022-11-23T02:05:16.630Z,4.35
2022-11-23T02:07:20.539Z,4.72
2022-11-23T02:09:24.175Z,5.32
2022-11-23T02:11:26.763Z,3.88
2022-11-23T02:13:30.266Z,4.32
2022-11-23T02:15:33.143Z,4.43
2022-11-23T02:17:35.787Z,4.65
2022-11-23T02:19:48.731Z,4.07
2022-11-23T02:21:53.875Z,4.40
2022-11-23T02:24:04.211Z,3.45
2022-11-23T02:26:11.174Z,3.45
2022-11-23T02:28:17.389Z,2.88
2022-11-23T02:30:20.157Z,2.75
2022-11-23T02:32:25.667Z,3.70
2022-11-23T02:34:28.309Z,2.92
2022-11-23T02:36:39.932Z,2.50
2022-11-23T02:38:42.563Z,2.58
2022-11-23T02:40:45.990Z,2.53
2022-11-23T02:42:51.150Z,1.70
2022-11-23T02:45:03.458Z,2.42
2022-11-23T02:47:06.527Z,2.78
2022-11-23T02:49:09.134Z,2.05
2022-11-23T02:51:11.773Z,1.63
2022-11-23T02:53:15.029Z,2.40
2022-11-23T02:55:17.765Z,2.17
2022-11-23T02:57:20.388Z,2.45
2022-11-23T02:59:24.307Z,2.17
2022-11-23T03:01:27.106Z,1.90
2022-11-23T03:03:29.847Z,2.10
2022-11-23T03:05:32.610Z,2.80
2022-11-23T03:07:35.532Z,2.95
2022-11-23T03:09:38.211Z,3.08
2022-11-23T03:11:40.846Z,3.08
2022-11-23T03:13:43.488Z,2.40
2022-11-23T03:15:48.129Z,3.42
2022-11-23T03:17:50.796Z,3.80
2022-11-23T03:19:53.455Z,2.75
2022-11-23T03:21:56.128Z,2.67
2022-11-23T03:23:59.201Z,2.85
2022-11-23T03:26:07.348Z,2.72
2022-11-23T03:28:13.973Z,3.20
2022-11-23T03:30:16.875Z,3.17
2022-11-23T03:32:20.859Z,2.78
2022-11-23T03:34:23.863Z,2.95
2022-11-23T03:36:26.764Z,2.92
2022-11-23T03:38:29.516Z,2.88
2022-11-23T03:40:32.134Z,2.70
2022-11-23T03:42:34.790Z,3.33
2022-11-23T03:44:37.407Z,3.30
2022-11-23T03:46:39.960Z,2.78
2022-11-23T03:48:43.894Z,2.95
2022-11-23T03:50:46.535Z,3.10
2022-11-23T03:52:50.710Z,3.00
2022-11-23T03:54:53.302Z,3.22
2022-11-23T03:56:55.871Z,2.85
2022-11-23T03:58:58.516Z,3.33
2022-11-23T04:01:01.238Z,3.53
2022-11-23T04:03:03.919Z,3.47
2022-11-23T04:05:09.201Z,3.17
2022-11-23T04:07:11.959Z,4.97
2022-11-23T04:09:14.677Z,4.88
2022-11-23T04:11:17.300Z,4.20
2022-11-23T04:13:19.882Z,4.20
2022-11-23T04:15:22.539Z,5.78
2022-11-23T04:17:25.114Z,7.15
2022-11-23T04:19:27.737Z,8.60
2022-11-23T04:21:31.809Z,10.13
2022-11-23T04:23:34.722Z,11.77
2022-11-23T04:25:37.348Z,10.98
2022-11-23T04:27:40.103Z,11.77
2022-11-23T04:29:42.681Z,11.82
2022-11-23T04:31:45.375Z,10.25
2022-11-23T04:33:47.976Z,10.65
2022-11-23T04:35:50.588Z,10.73
2022-11-23T04:37:54.526Z,9.52
2022-11-23T04:39:57.102Z,6.63
2022-11-23T04:41:59.726Z,6.97
2022-11-23T04:44:02.461Z,6.25
2022-11-23T04:46:05.386Z,5.15
2022-11-23T04:48:08.432Z,5.03
2022-11-23T04:50:11.039Z,5.22
2022-11-23T04:52:13.932Z,5.10
2022-11-23T04:54:17.886Z,6.00
2022-11-23T04:56:20.530Z,5.28
2022-11-23T04:58:23.153Z,5.15
2022-11-23T05:00:25.959Z,5.63
2022-11-23T05:02:28.553Z,4.50
2022-11-23T05:04:31.400Z,4.25
2022-11-23T05:06:33.994Z,3.85
2022-11-23T05:08:36.630Z,3.63
2022-11-23T05:10:40.575Z,3.47
2022-11-23T05:12:43.298Z,3.35
2022-11-23T05:14:45.971Z,3.78
2022-11-23T05:16:48.652Z,4.03
2022-11-23T05:18:51.236Z,3.50
2022-11-23T05:20:53.898Z,3.95
2022-11-23T05:22:56.552Z,3.47
2022-11-23T05:24:59.143Z,3.83
2022-11-23T05:27:03.129Z,4.07
2022-11-23T05:29:05.744Z,3.85
2022-11-23T05:31:08.630Z,3.95
2022-11-23T05:33:13.793Z,4.15
2022-11-23T05:35:16.678Z,4.05
2022-11-23T05:37:19.281Z,3.60
2022-11-23T05:39:21.863Z,4.25
2022-11-23T05:41:24.455Z,3.55
2022-11-23T05:43:28.418Z,3.38
2022-11-23T05:45:31.075Z,3.58
2022-11-23T05:47:33.676Z,3.45
2022-11-23T05:49:36.267Z,3.22
2022-11-23T05:51:38.861Z,3.42
2022-11-23T05:53:41.512Z,3.25
2022-11-23T05:55:44.322Z,3.30
2022-11-23T05:57:46.922Z,3.65
2022-11-23T05:59:51.020Z,3.42
2022-11-23T06:01:53.653Z,3.35
2022-11-23T06:03:56.296Z,3.50
2022-11-23T06:05:58.928Z,3.35
2022-11-23T06:08:01.584Z,3.63
2022-11-23T06:10:05.931Z,3.67
2022-11-23T06:12:08.998Z,3.65
2022-11-23T06:14:14.384Z,3.78
2022-11-23T06:16:18.661Z,4.03
2022-11-23T06:18:21.238Z,4.00
2022-11-23T06:20:23.862Z,4.03
2022-11-23T06:22:26.485Z,4.00
2022-11-23T06:24:29.249Z,4.20
2022-11-23T06:26:31.888Z,4.00
2022-11-23T06:28:36.258Z,4.30
2022-11-23T06:30:38.954Z,3.55
2022-11-23T06:32:42.948Z,4.13
2022-11-23T06:34:45.582Z,3.72
2022-11-23T06:36:48.190Z,3.83
2022-11-23T06:38:50.838Z,4.38
2022-11-23T06:40:53.449Z,3.78
2022-11-23T06:42:59.899Z,3.85
2022-11-23T06:45:02.601Z,4.20
2022-11-23T06:47:05.240Z,4.28
2022-11-23T06:49:09.372Z,4.53
2022-11-23T06:51:12.027Z,4.53
2022-11-23T06:53:14.677Z,4.78
2022-11-23T06:55:17.459Z,4.70
2022-11-23T06:57:20.422Z,3.75
2022-11-23T06:59:23.042Z,4.78
2022-11-23T07:01:25.682Z,4.07
2022-11-23T07:03:28.778Z,4.25
2022-11-23T07:05:32.759Z,4.35
2022-11-23T07:07:35.379Z,4.53
2022-11-23T07:09:38.152Z,5.30
2022-11-23T07:11:40.931Z,4.75
2022-11-23T07:13:43.549Z,4.65
2022-11-23T07:15:46.198Z,4.82
2022-11-23T07:17:48.788Z,6.50
2022-11-23T07:19:51.428Z,8.15
2022-11-23T07:21:55.363Z,9.23
2022-11-23T07:23:57.978Z,7.07
2022-11-23T07:26:00.553Z,6.82
2022-11-23T07:28:04.761Z,7.10
2022-11-23T07:30:08.804Z,6.97
2022-11-23T07:32:11.422Z,5.93
2022-11-23T07:34:14.012Z,6.32
2022-11-23T07:36:16.657Z,6.63
2022-11-23T07:38:20.590Z,6.65
2022-11-23T07:40:23.264Z,6.78
2022-11-23T07:42:36.838Z,4.68
2022-11-23T07:44:43.923Z,5.28
2022-11-23T07:46:46.586Z,5.28
2022-11-23T07:48:49.575Z,5.00
2022-11-23T07:50:54.185Z,4.80
2022-11-23T07:52:57.145Z,4.65
2022-11-23T07:55:01.258Z,4.72
2022-11-23T07:57:03.866Z,4.63
2022-11-23T07:59:06.650Z,4.20
2022-11-23T08:01:09.318Z,5.43
2022-11-23T08:03:30.726Z,4.45
2022-11-23T08:05:35.619Z,5.32
2022-11-23T08:07:38.301Z,6.25
2022-11-23T08:09:40.922Z,6.10
2022-11-23T08:11:44.852Z,5.68
2022-11-23T08:13:47.435Z,5.35
2022-11-23T08:15:55.015Z,4.93
2022-11-23T08:17:59.135Z,6.75
2022-11-23T08:20:01.751Z,6.30
2022-11-23T08:22:04.387Z,6.15
2022-11-23T08:24:07.480Z,5.95
2022-11-23T08:26:13.669Z,5.80
2022-11-23T08:28:18.642Z,5.65
2022-11-23T08:30:21.382Z,5.72
2022-11-23T08:32:23.941Z,6.05
2022-11-23T08:34:26.703Z,5.00
2022-11-23T08:36:29.399Z,5.32
2022-11-23T08:38:32.028Z,5.43
2022-11-23T08:40:34.866Z,4.38
2022-11-23T08:42:37.543Z,6.25
2022-11-23T08:44:41.499Z,4.30
2022-11-23T08:46:44.089Z,4.82
2022-11-23T08:48:46.859Z,4.50
2022-11-23T08:50:49.646Z,4.03
2022-11-23T08:52:56.062Z,4.05
2022-11-23T08:54:58.685Z,4.03
2022-11-23T08:57:01.312Z,4.43
2022-11-23T08:59:03.944Z,3.88
2022-11-23T09:01:10.963Z,4.53
2022-11-23T09:03:13.601Z,5.32
2022-11-23T09:05:16.358Z,5.43
2022-11-23T09:07:19.105Z,4.90
2022-11-23T09:09:21.825Z,4.93
2022-11-23T09:11:25.634Z,4.40
2022-11-23T09:13:28.397Z,4.55
2022-11-23T09:15:31.229Z,4.05
2022-11-23T09:17:35.565Z,4.05
2022-11-23T09:19:38.232Z,3.85
2022-11-23T09:21:42.833Z,4.25
2022-11-23T09:23:45.473Z,4.50
2022-11-23T09:25:49.972Z,5.20
2022-11-23T09:27:58.634Z,4.47
2022-11-23T09:30:01.251Z,4.35
2022-11-23T09:32:03.990Z,4.55
2022-11-23T09:34:07.937Z,3.35
2022-11-23T09:36:10.684Z,3.72
2022-11-23T09:38:13.320Z,3.40
2022-11-23T09:40:17.698Z,3.25
2022-11-23T09:42:40.628Z,3.35
2022-11-23T09:45:00.451Z,2.40
2022-11-23T09:47:16.485Z,2.75
2022-11-23T09:49:21.999Z,2.28
2022-11-23T09:51:24.749Z,2.47
2022-11-23T09:53:34.119Z,2.78
2022-11-23T09:55:40.562Z,2.55
2022-11-23T09:57:46.222Z,2.17
2022-11-23T09:59:53.897Z,2.08
2022-11-23T10:01:57.022Z,2.10
2022-11-23T10:04:00.018Z,2.25
2022-11-23T10:06:13.224Z,2.08
2022-11-23T10:08:23.106Z,2.15
2022-11-23T10:10:39.699Z,2.33
2022-11-23T10:12:52.725Z,2.75
2022-11-23T10:15:04.890Z,2.20
2022-11-23T10:17:16.182Z,3.40
2022-11-23T10:19:30.012Z,2.92
2022-11-23T10:21:45.412Z,3.35
2022-11-23T10:23:54.579Z,3.75
2022-11-23T10:25:57.337Z,3.85
2022-11-23T10:28:03.050Z,5.30
2022-11-23T10:30:13.187Z,3.00
2022-11-23T10:32:32.265Z,2.40
2022-11-23T10:34:47.454Z,2.35
2022-11-23T10:36:51.533Z,1.83
2022-11-23T10:38:59.412Z,2.58
2022-11-23T10:41:06.683Z,2.55
2022-11-23T10:43:17.968Z,2.13
2022-11-23T10:45:22.113Z,2.05
2022-11-23T10:47:41.203Z,2.47
2022-11-23T10:49:58.677Z,2.30
2022-11-23T10:52:05.596Z,2.20
2022-11-23T10:54:21.075Z,2.30
2022-11-23T10:56:24.200Z,2.22
2022-11-23T10:58:29.430Z,2.70
2022-11-23T11:00:32.040Z,2.95
2022-11-23T11:02:39.907Z,2.28
2022-11-23T11:04:42.646Z,2.38
2022-11-23T11:06:45.310Z,2.30
2022-11-23T11:08:53.298Z,2.35
2022-11-23T11:11:00.867Z,2.22
2022-11-23T11:13:04.491Z,3.05
2022-11-23T11:15:16.954Z,2.05
2022-11-23T11:17:27.374Z,2.72
2022-11-23T11:19:31.566Z,2.10
2022-11-23T11:21:38.456Z,2.30
2022-11-23T11:23:42.483Z,2.00
2022-11-23T11:25:48.641Z,2.53
2022-11-23T11:27:53.338Z,2.60
2022-11-23T11:30:00.530Z,2.30
2022-11-23T11:32:09.392Z,2.08
2022-11-23T11:34:26.495Z,2.15
2022-11-23T11:36:35.284Z,2.13
2022-11-23T11:38:39.677Z,2.30
2022-11-23T11:40:49.173Z,1.95
2022-11-23T11:42:57.871Z,2.35
2022-11-23T11:45:04.126Z,2.10
2022-11-23T11:47:21.017Z,1.80
2022-11-23T11:49:27.411Z,2.38
2022-11-23T11:51:35.372Z,2.00
2022-11-23T11:53:45.438Z,1.92
2022-11-23T11:55:54.485Z,2.13
2022-11-23T11:58:02.519Z,2.10
2022-11-23T12:00:11.856Z,1.95
2022-11-23T12:02:21.001Z,2.25
2022-11-23T12:04:29.122Z,1.75
2022-11-23T12:06:36.877Z,1.45
2022-11-23T12:08:48.552Z,1.80
2022-11-23T12:10:55.171Z,1.88
2022-11-23T12:12:57.808Z,2.67
2022-11-23T12:15:00.568Z,2.45
2022-11-23T12:17:31.998Z,2.20
2022-11-23T12:19:40.531Z,1.80
2022-11-23T12:22:15.898Z,2.03
2022-11-23T12:24:26.173Z,13.20
2022-11-23T12:26:35.980Z,1.75
2022-11-23T12:28:53.034Z,1.98
2022-11-23T12:31:05.505Z,1.92
2022-11-23T12:33:26.700Z,2.40
2022-11-23T12:35:49.338Z,2.00
2022-11-23T12:38:04.050Z,2.45
2022-11-23T12:40:29.495Z,2.25
2022-11-23T12:42:41.580Z,1.98
2022-11-23T12:45:05.200Z,1.85
2022-11-23T12:47:17.702Z,1.50
2022-11-23T12:49:38.850Z,1.30
2022-11-23T12:51:52.061Z,1.77
2022-11-23T12:54:08.653Z,2.17
2022-11-23T12:56:22.578Z,2.00
2022-11-23T12:58:29.228Z,2.08
2022-11-23T13:00:37.290Z,1.90
2022-11-23T13:03:15.902Z,2.58
2022-11-23T13:06:06.282Z,1.70
2022-11-23T13:08:32.389Z,2.05
2022-11-23T13:10:58.698Z,1.75
2022-11-23T13:13:17.516Z,2.17
2022-11-23T13:15:36.697Z,1.83
2022-11-23T13:17:47.897Z,2.08
2022-11-23T13:20:21.703Z,2.22
2022-11-23T13:22:25.491Z,1.55
2022-11-23T13:24:31.379Z,1.30
2022-11-23T13:26:34.355Z,1.55
2022-11-23T13:28:37.008Z,2.03
2022-11-23T13:33:35.759Z,2.40
2022-11-23T13:35:53.622Z,2.10
2022-11-23T13:38:29.569Z,1.70
2022-11-23T13:40:34.251Z,2.42
2022-11-23T13:42:40.144Z,1.48
2022-11-23T13:44:42.776Z,2.05
2022-11-23T13:46:58.787Z,1.52
2022-11-23T13:49:01.674Z,1.30
2022-11-23T13:51:05.700Z,1.85
2022-11-23T13:53:22.757Z,1.77
2022-11-23T13:55:35.668Z,1.48
2022-11-23T13:57:39.291Z,1.83
2022-11-23T13:59:41.936Z,1.52
2022-11-23T14:02:17.973Z,1.67
2022-11-23T14:04:23.501Z,1.48
2022-11-23T14:06:47.008Z,1.60
2022-11-23T14:08:53.622Z,1.58
2022-11-23T14:10:58.519Z,1.80
2022-11-23T14:13:07.833Z,1.65
2022-11-23T14:15:16.324Z,1.42
2022-11-23T14:17:47.765Z,1.55
2022-11-23T14:20:11.829Z,1.65
2022-11-23T14:22:25.459Z,1.67
2022-11-23T14:25:02.886Z,1.85
2022-11-23T14:30:02.645Z,1.33
2022-11-23T14:32:21.247Z,1.55
2022-11-23T14:34:32.510Z,1.80
2022-11-23T14:36:47.673Z,1.60
2022-11-23T14:39:11.068Z,1.58
2022-11-23T14:41:17.854Z,1.70
2022-11-23T14:43:21.082Z,1.80
2022-11-23T14:45:28.482Z,2.05
2022-11-23T14:47:32.449Z,1.58
2022-11-23T14:49:35.476Z,1.67
2022-11-23T14:51:44.642Z,1.45
2022-11-23T14:53:49.518Z,1.50
2022-11-23T14:55:53.028Z,1.35
2022-11-23T14:58:00.618Z,1.25
2022-11-23T15:00:10.168Z,1.83
2022-11-23T15:02:19.633Z,1.42
2022-11-23T15:04:25.214Z,1.30
2022-11-23T15:06:31.777Z,1.52
2022-11-23T15:08:44.935Z,1.48
2022-11-23T15:10:53.285Z,1.40
2022-11-23T15:12:55.884Z,1.42
2022-11-23T15:14:58.594Z,1.55
2022-11-23T15:17:14.806Z,1.70
2022-11-23T15:19:27.636Z,1.42
2022-11-23T15:21:30.675Z,1.40
2022-11-23T15:23:37.955Z,1.50
2022-11-23T15:25:53.939Z,1.90
2022-11-23T15:27:56.844Z,2.10
2022-11-23T15:30:01.250Z,1.35
2022-11-23T15:32:29.339Z,1.63
2022-11-23T15:34:29.272Z,1.45
2022-11-23T15:36:35.759Z,1.50
2022-11-23T15:38:40.140Z,1.77
2022-11-23T15:40:44.860Z,5.95
2022-11-23T15:42:51.005Z,5.50
2022-11-23T15:44:55.941Z,5.88
2022-11-23T15:47:02.017Z,4.70
2022-11-23T15:49:06.512Z,8.00
2022-11-23T15:51:21.330Z,7.80
2022-11-23T15:53:29.033Z,2.42
2022-11-23T15:55:33.065Z,2.50
2022-11-23T15:57:35.875Z,2.08
2022-11-23T15:59:44.139Z,2.00
2022-11-23T16:01:49.298Z,2.38
2022-11-23T16:03:55.587Z,2.90
2022-11-23T16:06:18.442Z,3.33
2022-11-23T16:08:26.049Z,2.83
2022-11-23T16:10:30.125Z,2.53
2022-11-23T16:12:35.644Z,2.42
2022-11-23T16:14:38.551Z,2.55
2022-11-23T16:16:45.861Z,2.92
2022-11-23T16:18:52.125Z,2.90
2022-11-23T16:20:57.596Z,3.05
2022-11-23T16:23:01.580Z,3.10
2022-11-23T16:25:08.471Z,2.80
2022-11-23T16:27:15.785Z,2.10
2022-11-23T16:29:25.127Z,1.90
2022-11-23T16:31:30.058Z,2.42
2022-11-23T16:33:34.049Z,2.30
2022-11-23T16:35:36.685Z,2.28
2022-11-23T16:37:39.332Z,1.90
2022-11-23T16:39:41.931Z,2.65
2022-11-23T16:41:44.599Z,2.05
2022-11-23T16:43:52.749Z,2.20
2022-11-23T16:45:56.804Z,1.98
2022-11-23T16:48:01.080Z,2.00
2022-11-23T16:50:04.950Z,2.00
2022-11-23T16:52:11.623Z,3.47
2022-11-23T16:54:16.191Z,4.20
2022-11-23T16:56:23.901Z,4.85
2022-11-23T16:58:30.777Z,2.30
2022-11-23T17:00:33.872Z,1.75
2022-11-23T17:02:37.916Z,2.20
2022-11-23T17:04:40.579Z,1.67
2022-11-23T17:06:43.288Z,1.90
2022-11-23T17:08:46.394Z,1.75
2022-11-23T17:10:50.229Z,2.10
2022-11-23T17:12:54.974Z,2.42
2022-11-23T17:14:57.719Z,1.90
2022-11-23T17:17:02.523Z,3.13
2022-11-23T17:19:07.315Z,2.13
2022-11-23T17:21:10.270Z,2.45
2022-11-23T17:23:13.357Z,2.88
2022-11-23T17:25:18.936Z,1.63
2022-11-23T17:27:24.137Z,1.85
2022-11-23T17:29:26.734Z,2.10
2022-11-23T17:31:29.624Z,2.45
2022-11-23T17:33:32.260Z,2.35
2022-11-23T17:35:38.435Z,3.35
2022-11-23T17:37:41.404Z,4.10
2022-11-23T17:39:44.064Z,3.22
2022-11-23T17:41:48.114Z,3.50
2022-11-23T17:43:50.801Z,4.45
2022-11-23T17:45:53.421Z,4.40
2022-11-23T17:47:59.449Z,4.07
2022-11-23T17:50:07.255Z,3.60
2022-11-23T17:52:12.973Z,4.10
2022-11-23T17:54:15.572Z,4.13
2022-11-23T17:56:20.324Z,4.07
2022-11-23T17:58:22.977Z,3.88
2022-11-23T18:00:25.585Z,4.07
2022-11-23T18:02:28.375Z,4.75
2022-11-23T18:04:31.114Z,5.20
2022-11-23T18:06:33.824Z,4.40
2022-11-23T18:08:38.027Z,5.78
2022-11-23T18:10:40.681Z,4.22
2022-11-23T18:12:44.585Z,4.43
2022-11-23T18:14:47.362Z,5.05
2022-11-23T18:16:49.917Z,4.70
2022-11-23T18:18:52.517Z,5.30
2022-11-23T18:20:55.193Z,4.95
2022-11-23T18:22:57.806Z,6.35
2022-11-23T18:25:01.818Z,5.97
2022-11-23T18:27:04.420Z,5.72
2022-11-23T18:29:07.250Z,5.18
2022-11-23T18:31:09.957Z,4.47
2022-11-23T18:33:12.579Z,4.18
2022-11-23T18:35:15.380Z,5.03
2022-11-23T18:37:18.069Z,4.95
2022-11-23T18:39:20.674Z,4.88
2022-11-23T18:41:24.698Z,5.60
2022-11-23T18:43:27.417Z,5.30
2022-11-23T18:45:30.059Z,5.45
2022-11-23T18:47:32.673Z,5.18
2022-11-23T18:49:35.448Z,7.30
2022-11-23T18:51:38.490Z,8.05
2022-11-23T18:53:41.555Z,9.10
2022-11-23T18:55:44.172Z,7.75
2022-11-23T18:57:48.135Z,8.25
2022-11-23T18:59:58.034Z,7.97
2022-11-23T19:02:01.468Z,7.40
2022-11-23T19:04:04.206Z,5.97
2022-11-23T19:06:08.315Z,5.60
2022-11-23T19:08:10.938Z,5.35
2022-11-23T19:10:14.236Z,5.60
2022-11-23T19:12:17.028Z,5.55
2022-11-23T19:14:21.033Z,5.40
2022-11-23T19:16:25.436Z,4.95
2022-11-23T19:18:28.039Z,4.93
2022-11-23T19:20:30.612Z,4.53
2022-11-23T19:22:33.660Z,5.25
2022-11-23T19:24:36.254Z,4.85
2022-11-23T19:26:38.944Z,4.88
2022-11-23T19:28:44.710Z,5.60
2022-11-23T19:30:48.701Z,4.60
2022-11-23T19:32:51.299Z,4.63
2022-11-23T19:34:55.332Z,4.43
2022-11-23T19:36:57.940Z,4.80
2022-11-23T19:39:01.147Z,3.90
2022-11-23T19:41:03.768Z,3.72
2022-11-23T19:43:06.423Z,3.60
2022-11-23T19:45:09.815Z,3.55
2022-11-23T19:47:18.700Z,3.08
2022-11-23T19:49:23.967Z,3.13
2022-11-23T19:51:27.840Z,3.40
2022-11-23T19:53:32.366Z,3.08
2022-11-23T19:55:34.982Z,2.97
2022-11-23T19:57:37.566Z,3.00
2022-11-23T19:59:40.260Z,3.05
2022-11-23T20:01:43.134Z,2.83
2022-11-23T20:03:49.363Z,3.15
2022-11-23T20:05:57.446Z,2.85
2022-11-23T20:08:01.825Z,3.08
2022-11-23T20:10:04.878Z,3.22
2022-11-23T20:12:07.782Z,2.80
2022-11-23T20:14:12.373Z,2.88
2022-11-23T20:16:16.543Z,2.63
2022-11-23T20:18:19.848Z,2.80
2022-11-23T20:20:23.793Z,2.90
2022-11-23T20:22:26.429Z,2.67
2022-11-23T20:24:29.030Z,2.60
2022-11-23T20:26:31.613Z,2.75
2022-11-23T20:28:34.393Z,2.80
2022-11-23T20:30:37.445Z,2.42
2022-11-23T20:32:40.076Z,2.60
2022-11-23T20:34:42.649Z,2.60
2022-11-23T20:38:50.573Z,2.80
2022-11-23T20:40:53.158Z,2.70
2022-11-23T20:42:56.995Z,2.40
2022-11-23T20:44:59.569Z,2.38
2022-11-23T20:47:03.268Z,2.45
2022-11-23T20:49:06.360Z,3.00
2022-11-23T20:51:10.750Z,2.90
2022-11-23T20:53:14.865Z,2.15
2022-11-23T20:55:23.172Z,2.38
2022-11-23T20:57:26.243Z,2.25
2022-11-23T20:59:29.776Z,2.20
2022-11-23T21:01:32.697Z,2.65
2022-11-23T21:03:36.347Z,2.05
2022-11-23T21:05:38.986Z,2.97
2022-11-23T21:07:41.673Z,2.97
2022-11-23T21:09:45.727Z,2.28
2022-11-23T21:12:07.164Z,2.20
2022-11-23T21:14:17.482Z,2.28
2022-11-23T21:16:21.472Z,2.33
2022-11-23T21:18:24.133Z,2.00
2022-11-23T21:20:26.707Z,2.05
2022-11-23T21:22:29.418Z,2.17
2022-11-23T21:24:32.612Z,2.00
2022-11-23T21:26:36.821Z,2.20
2022-11-23T21:28:39.450Z,2.45
2022-11-23T21:30:42.562Z,2.30
2022-11-23T21:32:45.149Z,2.42
2022-11-23T21:34:47.862Z,2.40
2022-11-23T21:36:51.415Z,1.80
2022-11-23T21:38:54.019Z,2.30
2022-11-23T21:40:57.801Z,2.63
2022-11-23T21:43:01.865Z,2.90
2022-11-23T21:45:04.655Z,2.92
2022-11-23T21:47:07.359Z,3.20
2022-11-23T21:49:10.509Z,3.42
2022-11-23T21:51:15.058Z,4.63
2022-11-23T21:53:17.665Z,3.50
2022-11-23T21:55:20.261Z,4.20
2022-11-23T21:57:22.846Z,4.78
2022-11-23T21:59:26.924Z,5.43
2022-11-23T22:01:31.262Z,4.45
2022-11-23T22:03:37.709Z,3.55
2022-11-23T22:05:40.298Z,2.92
2022-11-23T22:07:55.107Z,3.00
2022-11-23T22:10:05.884Z,3.35
2022-11-23T22:12:08.489Z,3.03
2022-11-23T22:14:12.785Z,3.35
2022-11-23T22:16:18.645Z,2.75
2022-11-23T22:18:21.388Z,3.28
2022-11-23T22:20:24.097Z,2.67
2022-11-23T22:22:27.925Z,3.67
2022-11-23T22:24:30.783Z,4.32
2022-11-23T22:26:34.166Z,7.43
2022-11-23T22:28:38.517Z,6.95
2022-11-23T22:30:41.203Z,4.70
2022-11-23T22:32:45.143Z,5.90
2022-11-23T22:34:47.958Z,6.05
2022-11-23T22:36:51.441Z,4.70
2022-11-23T22:39:01.021Z,3.15
2022-11-23T22:41:06.864Z,3.20
2022-11-23T22:43:09.451Z,2.75
2022-11-23T22:45:12.144Z,3.75
2022-11-23T22:47:14.777Z,2.67
2022-11-23T22:49:18.864Z,2.80
2022-11-23T22:51:23.860Z,2.55
2022-11-23T22:53:27.097Z,3.22
2022-11-23T22:55:30.448Z,2.63
2022-11-23T22:57:33.034Z,2.47
2022-11-23T22:59:35.632Z,2.88
2022-11-23T23:01:38.228Z,3.25
2022-11-23T23:03:41.381Z,3.00
2022-11-23T23:05:54.650Z,2.58
2022-11-23T23:07:57.281Z,2.35
2022-11-23T23:09:59.989Z,2.63
2022-11-23T23:12:02.744Z,2.60
2022-11-23T23:14:05.692Z,2.65
2022-11-23T23:16:11.751Z,2.55
2022-11-23T23:18:16.175Z,2.38
2022-11-23T23:20:18.996Z,2.50
2022-11-23T23:22:22.921Z,2.72
2022-11-23T23:24:25.544Z,2.80
2022-11-23T23:26:29.260Z,2.35
2022-11-23T23:28:31.899Z,2.85
2022-11-23T23:30:34.811Z,3.00
2022-11-23T23:32:37.399Z,2.30
2022-11-23T23:34:40.218Z,3.15
2022-11-23T23:36:42.835Z,3.70
2022-11-23T23:38:46.790Z,4.05
2022-11-23T23:40:49.422Z,3.53
2022-11-23T23:42:52.020Z,2.95
2022-11-23T23:44:54.765Z,2.63
2022-11-23T23:46:57.356Z,3.30
2022-11-23T23:49:00.626Z,3.70
2022-11-23T23:51:06.295Z,3.20
2022-11-23T23:53:08.935Z,2.42
2022-11-23T23:55:12.857Z,3.35
2022-11-23T23:57:15.481Z,3.08
2022-11-23T23:59:18.045Z,3.28
